createdAt,value
2023-03-02T00:00:18.069Z,20.65
2023-03-02T00:02:48.814Z,20.64
2023-03-02T00:05:19.976Z,20.56
2023-03-02T00:07:51.100Z,20.55
2023-03-02T00:10:21.350Z,20.54
2023-03-02T00:12:52.137Z,20.49
2023-03-02T00:15:25.120Z,20.53
2023-03-02T00:17:55.681Z,20.53
2023-03-02T00:20:26.595Z,20.52
2023-03-02T00:22:58.952Z,20.54
2023-03-02T00:25:29.972Z,20.56
2023-03-02T00:28:00.484Z,20.50
2023-03-02T00:30:30.658Z,20.50
2023-03-02T00:33:01.156Z,20.64
2023-03-02T00:35:31.149Z,20.69
2023-03-02T00:38:01.726Z,20.74
2023-03-02T00:40:31.853Z,20.89
2023-03-02T00:43:02.416Z,20.97
2023-03-02T00:45:32.953Z,20.91
2023-03-02T00:48:03.405Z,20.79
2023-03-02T00:50:34.298Z,20.56
2023-03-02T00:53:06.788Z,20.49
2023-03-02T00:55:37.808Z,20.40
2023-03-02T00:58:08.848Z,20.32
2023-03-02T01:00:39.350Z,20.41
2023-03-02T01:03:11.535Z,20.55
2023-03-02T01:05:41.712Z,20.54
2023-03-02T01:08:12.348Z,20.61
2023-03-02T01:10:42.997Z,20.57
2023-03-02T01:13:13.781Z,20.57
2023-03-02T01:15:43.993Z,20.55
2023-03-02T01:18:14.655Z,20.46
2023-03-02T01:20:44.856Z,20.54
2023-03-02T01:23:15.338Z,20.55
2023-03-02T01:25:45.313Z,20.46
2023-03-02T01:28:15.768Z,20.39
2023-03-02T01:30:45.803Z,20.29
2023-03-02T01:33:16.423Z,20.28
2023-03-02T01:35:48.419Z,20.32
2023-03-02T01:38:18.977Z,20.52
2023-03-02T01:40:49.082Z,20.57
2023-03-02T01:43:19.643Z,20.55
2023-03-02T01:45:57.129Z,20.50
2023-03-02T01:48:51.180Z,20.60
2023-03-02T01:51:33.425Z,20.59
2023-03-02T01:54:07.991Z,20.74
2023-03-02T01:56:42.648Z,20.59
2023-03-02T01:59:18.215Z,20.74
2023-03-02T02:01:54.215Z,20.56
2023-03-02T02:04:27.272Z,20.60
2023-03-02T02:07:04.540Z,20.62
2023-03-02T02:09:52.624Z,20.60
2023-03-02T02:12:24.953Z,20.51
2023-03-02T02:15:01.667Z,20.58
2023-03-02T02:17:32.648Z,20.66
2023-03-02T02:20:20.714Z,20.56
2023-03-02T02:23:07.678Z,20.61
2023-03-02T02:26:03.028Z,20.41
2023-03-02T02:28:39.676Z,20.32
2023-03-02T02:31:38.361Z,20.30
2023-03-02T02:34:23.651Z,20.39
2023-03-02T02:37:07.428Z,20.40
2023-03-02T02:39:42.476Z,20.42
2023-03-02T02:42:34.925Z,20.59
2023-03-02T02:45:28.007Z,20.56
2023-03-02T02:47:58.687Z,20.56
2023-03-02T02:50:36.122Z,20.50
2023-03-02T02:53:12.966Z,20.53
2023-03-02T02:55:44.475Z,20.51
2023-03-02T02:58:48.682Z,20.51
2023-03-02T03:01:21.984Z,20.44
2023-03-02T03:03:55.736Z,20.52
2023-03-02T03:06:31.584Z,20.51
2023-03-02T03:09:05.513Z,20.42
2023-03-02T03:11:48.474Z,20.21
2023-03-02T03:14:22.633Z,20.15
2023-03-02T03:16:55.288Z,20.16
2023-03-02T03:19:30.290Z,20.14
2023-03-02T03:22:03.572Z,20.12
2023-03-02T03:24:37.575Z,20.11
2023-03-02T03:27:09.952Z,20.15
2023-03-02T03:29:46.640Z,20.18
2023-03-02T03:32:19.238Z,20.11
2023-03-02T03:34:50.858Z,20.30
2023-03-02T03:37:26.755Z,20.29
2023-03-02T03:39:57.444Z,20.26
2023-03-02T03:42:28.609Z,20.35
2023-03-02T03:45:00.160Z,20.50
2023-03-02T03:47:30.730Z,20.55
2023-03-02T03:50:00.805Z,20.54
2023-03-02T03:52:32.640Z,20.50
2023-03-02T03:55:10.849Z,20.38
2023-03-02T03:57:41.563Z,20.30
2023-03-02T04:00:23.674Z,20.25
2023-03-02T04:03:06.800Z,20.31
2023-03-02T04:05:37.061Z,20.32
2023-03-02T04:08:09.073Z,20.55
2023-03-02T04:10:39.780Z,20.45
2023-03-02T04:13:10.431Z,20.38
2023-03-02T04:15:43.646Z,20.41
2023-03-02T04:18:15.618Z,20.41
2023-03-02T04:20:45.784Z,20.40
2023-03-02T04:23:16.322Z,20.43
2023-03-02T04:25:46.423Z,20.54
2023-03-02T04:28:21.706Z,20.54
2023-03-02T04:30:52.687Z,20.63
2023-03-02T04:33:23.402Z,20.69
2023-03-02T04:35:55.729Z,20.57
2023-03-02T04:38:30.698Z,20.53
2023-03-02T04:41:01.266Z,20.48
2023-03-02T04:43:33.391Z,20.39
2023-03-02T04:46:03.583Z,20.37
2023-03-02T04:48:34.143Z,20.34
2023-03-02T04:51:04.240Z,20.32
2023-03-02T04:53:34.769Z,20.25
2023-03-02T04:56:04.933Z,20.17
2023-03-02T04:58:35.483Z,20.13
2023-03-02T05:01:05.647Z,20.13
2023-03-02T05:03:36.270Z,20.05
2023-03-02T05:06:06.615Z,20.03
2023-03-02T05:08:37.304Z,20.06
2023-03-02T05:11:09.021Z,20.06
2023-03-02T05:13:39.627Z,20.02
2023-03-02T05:16:09.851Z,20.05
2023-03-02T05:18:40.392Z,20.02
2023-03-02T05:21:11.251Z,20.00
2023-03-02T05:23:42.380Z,20.05
2023-03-02T05:26:12.764Z,20.10
2023-03-02T05:28:43.703Z,20.10
2023-03-02T05:31:32.165Z,20.13
2023-03-02T05:34:03.843Z,20.17
2023-03-02T05:36:34.298Z,20.01
2023-03-02T05:39:05.236Z,20.03
2023-03-02T05:41:36.891Z,20.01
2023-03-02T05:44:10.696Z,20.03
2023-03-02T05:46:41.022Z,20.09
2023-03-02T05:49:11.953Z,20.07
2023-03-02T05:51:42.066Z,20.04
2023-03-02T05:54:12.612Z,19.96
2023-03-02T05:56:43.082Z,20.01
2023-03-02T05:59:13.621Z,20.01
2023-03-02T06:01:43.727Z,20.08
2023-03-02T06:04:14.589Z,20.13
2023-03-02T06:06:45.641Z,20.07
2023-03-02T06:09:16.171Z,20.12
2023-03-02T06:11:46.753Z,20.21
2023-03-02T06:14:17.310Z,20.22
2023-03-02T06:16:49.897Z,20.22
2023-03-02T06:19:20.546Z,20.30
2023-03-02T06:21:50.643Z,20.25
2023-03-02T06:24:21.280Z,20.20
2023-03-02T06:26:51.397Z,20.26
2023-03-02T06:29:22.639Z,20.21
2023-03-02T06:31:53.067Z,20.12
2023-03-02T06:34:23.731Z,20.11
2023-03-02T06:36:53.803Z,20.15
2023-03-02T06:39:24.928Z,20.19
2023-03-02T06:41:55.094Z,20.20
2023-03-02T06:44:25.618Z,20.16
2023-03-02T06:46:55.643Z,20.16
2023-03-02T06:49:26.157Z,20.06
2023-03-02T06:51:56.201Z,20.05
2023-03-02T06:54:26.722Z,19.99
2023-03-02T06:56:58.917Z,19.98
2023-03-02T06:59:28.922Z,20.08
2023-03-02T07:01:58.709Z,20.12
2023-03-02T07:04:31.874Z,20.16
2023-03-02T07:07:02.376Z,20.19
2023-03-02T07:09:35.323Z,20.35
2023-03-02T07:12:05.888Z,20.26
2023-03-02T07:14:37.791Z,20.20
2023-03-02T07:17:08.375Z,20.28
2023-03-02T07:19:40.981Z,20.29
2023-03-02T07:22:11.570Z,20.15
2023-03-02T07:24:42.991Z,20.09
2023-03-02T07:27:14.605Z,20.08
2023-03-02T07:29:44.730Z,19.97
2023-03-02T07:32:15.237Z,19.98
2023-03-02T07:34:45.361Z,19.88
2023-03-02T07:37:15.214Z,19.92
2023-03-02T07:39:45.909Z,20.05
2023-03-02T07:42:16.401Z,20.06
2023-03-02T07:44:53.415Z,20.07
2023-03-02T07:47:23.786Z,20.03
2023-03-02T07:49:54.327Z,20.02
2023-03-02T07:52:24.672Z,19.99
2023-03-02T07:54:55.208Z,19.79
2023-03-02T07:57:25.399Z,19.84
2023-03-02T07:59:55.867Z,19.78
2023-03-02T08:02:26.630Z,19.82
2023-03-02T08:04:57.532Z,19.76
2023-03-02T08:07:27.676Z,19.74
2023-03-02T08:09:59.233Z,19.76
2023-03-02T08:12:30.183Z,19.76
2023-03-02T08:15:01.716Z,19.75
2023-03-02T08:17:33.601Z,19.76
2023-03-02T08:20:05.593Z,19.78
2023-03-02T08:22:36.021Z,19.90
2023-03-02T08:25:07.108Z,19.95
2023-03-02T08:27:37.407Z,19.91
2023-03-02T08:30:08.983Z,20.01
2023-03-02T08:32:39.230Z,19.92
2023-03-02T08:35:10.570Z,19.87
2023-03-02T08:37:40.608Z,19.93
2023-03-02T08:40:11.168Z,19.99
2023-03-02T08:42:41.906Z,20.05
2023-03-02T08:45:12.271Z,19.91
2023-03-02T08:47:42.810Z,19.80
2023-03-02T08:50:13.253Z,19.82
2023-03-02T08:52:43.812Z,19.75
2023-03-02T08:55:15.099Z,19.82
2023-03-02T08:57:45.536Z,19.90
2023-03-02T09:00:17.543Z,19.87
2023-03-02T09:02:48.039Z,19.91
2023-03-02T09:05:18.353Z,19.93
2023-03-02T09:07:49.993Z,19.80
2023-03-02T09:10:20.282Z,19.88
2023-03-02T09:12:51.302Z,19.83
2023-03-02T09:15:21.383Z,19.80
2023-03-02T09:17:51.978Z,19.79
2023-03-02T09:20:22.947Z,19.84
2023-03-02T09:22:53.491Z,19.78
2023-03-02T09:25:23.696Z,19.81
2023-03-02T09:27:54.142Z,19.84
2023-03-02T09:30:24.235Z,19.82
2023-03-02T09:32:54.855Z,19.88
2023-03-02T09:35:25.004Z,19.96
2023-03-02T09:37:55.934Z,20.09
2023-03-02T09:40:28.810Z,20.35
2023-03-02T09:43:07.026Z,20.50
2023-03-02T09:45:55.643Z,20.79
2023-03-02T09:48:32.169Z,21.09
2023-03-02T09:51:22.821Z,21.36
2023-03-02T09:54:11.980Z,21.37
2023-03-02T09:56:47.028Z,21.50
2023-03-02T09:59:24.488Z,22.06
2023-03-02T10:02:02.519Z,22.30
2023-03-02T10:04:47.294Z,22.40
2023-03-02T10:07:29.026Z,22.61
2023-03-02T10:10:06.195Z,22.81
2023-03-02T10:13:01.134Z,22.63
2023-03-02T10:16:06.554Z,22.98
2023-03-02T10:18:43.177Z,23.32
2023-03-02T10:21:31.467Z,23.79
2023-03-02T10:24:31.549Z,24.29
2023-03-02T10:27:39.380Z,24.48
2023-03-02T10:30:32.519Z,24.79
2023-03-02T10:33:13.581Z,25.09
2023-03-02T10:35:49.761Z,25.37
2023-03-02T10:38:22.664Z,25.50
2023-03-02T10:40:58.179Z,26.24
2023-03-02T10:43:52.615Z,26.46
2023-03-02T10:46:22.909Z,26.60
2023-03-02T10:48:57.520Z,26.56
2023-03-02T10:51:36.708Z,26.82
2023-03-02T10:54:14.076Z,27.08
2023-03-02T10:56:50.197Z,27.52
2023-03-02T10:59:49.436Z,27.84
2023-03-02T11:02:25.304Z,28.59
2023-03-02T11:04:59.067Z,28.58
2023-03-02T11:07:31.221Z,28.82
2023-03-02T11:10:04.286Z,29.03
2023-03-02T11:12:37.962Z,29.53
2023-03-02T11:15:25.208Z,29.94
2023-03-02T11:18:22.295Z,30.61
2023-03-02T11:20:56.487Z,30.65
2023-03-02T11:23:37.966Z,30.72
2023-03-02T11:26:35.344Z,31.20
2023-03-02T11:29:28.336Z,30.93
2023-03-02T11:32:20.918Z,31.46
2023-03-02T11:35:02.173Z,31.93
2023-03-02T11:37:41.767Z,31.96
2023-03-02T11:40:31.828Z,32.47
2023-03-02T11:43:06.031Z,32.89
2023-03-02T11:45:45.274Z,33.27
2023-03-02T11:48:30.603Z,33.60
2023-03-02T11:51:03.433Z,33.85
2023-03-02T11:53:52.156Z,33.55
2023-03-02T11:56:22.626Z,33.52
2023-03-02T11:59:00.614Z,34.45
2023-03-02T12:01:32.696Z,34.62
2023-03-02T12:04:37.248Z,34.51
2023-03-02T12:07:24.249Z,34.88
2023-03-02T12:10:32.709Z,35.32
2023-03-02T12:13:22.829Z,35.77
2023-03-02T12:15:54.248Z,35.57
2023-03-02T12:18:24.302Z,35.68
2023-03-02T12:21:17.176Z,36.01
2023-03-02T12:23:53.347Z,36.28
2023-03-02T12:26:23.721Z,36.54
2023-03-02T12:29:10.943Z,37.20
2023-03-02T12:31:42.533Z,36.74
2023-03-02T12:34:27.260Z,36.42
2023-03-02T12:37:02.752Z,35.87
2023-03-02T12:40:02.775Z,36.41
2023-03-02T12:42:36.619Z,36.73
2023-03-02T12:45:25.814Z,37.41
2023-03-02T12:48:06.267Z,37.52
2023-03-02T12:50:40.701Z,38.14
2023-03-02T12:53:20.391Z,38.65
2023-03-02T12:55:50.613Z,38.58
2023-03-02T12:58:24.641Z,38.91
2023-03-02T13:01:01.189Z,39.21
2023-03-02T13:03:33.216Z,39.28
2023-03-02T13:06:11.937Z,39.41
2023-03-02T13:08:46.615Z,39.09
2023-03-02T13:11:22.937Z,39.15
2023-03-02T13:13:53.485Z,39.13
2023-03-02T13:16:26.380Z,38.09
2023-03-02T13:18:59.659Z,38.57
2023-03-02T13:21:35.394Z,39.29
2023-03-02T13:24:26.401Z,39.40
2023-03-02T13:27:08.243Z,38.56
2023-03-02T13:29:38.772Z,38.94
2023-03-02T13:32:22.342Z,38.86
2023-03-02T13:34:58.917Z,39.72
2023-03-02T13:37:44.878Z,40.09
2023-03-02T13:40:24.191Z,40.74
2023-03-02T13:42:55.218Z,40.59
2023-03-02T13:45:34.879Z,40.64
2023-03-02T13:48:19.177Z,39.01
2023-03-02T13:51:04.449Z,38.66
2023-03-02T13:53:39.104Z,40.06
2023-03-02T13:56:12.581Z,40.85
2023-03-02T13:58:42.854Z,40.75
2023-03-02T14:01:15.065Z,40.61
2023-03-02T14:03:45.146Z,40.19
2023-03-02T14:06:15.692Z,40.29
2023-03-02T14:08:47.118Z,40.74
2023-03-02T14:11:19.108Z,40.64
2023-03-02T14:13:56.598Z,41.09
2023-03-02T14:16:27.764Z,40.21
2023-03-02T14:18:58.052Z,40.65
2023-03-02T14:21:28.565Z,40.72
2023-03-02T14:24:00.186Z,40.68
2023-03-02T14:26:37.345Z,41.16
2023-03-02T14:29:29.655Z,41.77
2023-03-02T14:32:04.748Z,41.39
2023-03-02T14:34:37.038Z,40.90
2023-03-02T14:37:16.442Z,40.07
2023-03-02T14:39:55.326Z,40.44
2023-03-02T14:42:26.340Z,41.09
2023-03-02T14:44:56.990Z,40.10
2023-03-02T14:47:27.068Z,40.34
2023-03-02T14:49:57.646Z,40.04
2023-03-02T14:52:35.904Z,40.77
2023-03-02T14:55:31.062Z,40.50
2023-03-02T14:58:07.305Z,40.13
2023-03-02T15:00:38.019Z,40.47
2023-03-02T15:03:08.091Z,40.98
2023-03-02T15:05:39.588Z,40.89
2023-03-02T15:08:14.983Z,40.70
2023-03-02T15:10:48.155Z,40.95
2023-03-02T15:13:18.581Z,41.13
2023-03-02T15:16:44.305Z,42.05
2023-03-02T15:19:33.319Z,42.67
2023-03-02T15:22:03.433Z,43.00
2023-03-02T15:24:33.558Z,42.79
2023-03-02T15:27:03.664Z,42.42
2023-03-02T15:29:32.925Z,41.78
2023-03-02T15:32:02.446Z,41.82
2023-03-02T15:34:31.821Z,42.25
2023-03-02T15:37:01.785Z,42.53
2023-03-02T15:39:31.252Z,42.22
2023-03-02T15:42:00.923Z,41.44
2023-03-02T15:44:31.592Z,41.37
2023-03-02T15:47:02.123Z,41.08
2023-03-02T15:49:33.915Z,41.59
2023-03-02T15:52:03.255Z,42.49
2023-03-02T15:54:33.390Z,43.88
2023-03-02T15:57:03.277Z,43.50
2023-03-02T15:59:33.609Z,43.62
2023-03-02T16:02:03.589Z,43.32
2023-03-02T16:04:35.615Z,44.17
2023-03-02T16:07:06.515Z,44.27
2023-03-02T16:09:38.181Z,42.73
2023-03-02T16:12:08.089Z,42.83
2023-03-02T16:14:38.298Z,42.10
2023-03-02T16:17:08.107Z,41.42
2023-03-02T16:19:38.863Z,41.46
2023-03-02T16:22:08.603Z,41.51
2023-03-02T16:24:38.745Z,41.83
2023-03-02T16:27:10.416Z,42.32
2023-03-02T16:29:40.181Z,41.70
2023-03-02T16:32:10.778Z,42.25
2023-03-02T16:34:40.577Z,41.52
2023-03-02T16:37:10.940Z,41.51
2023-03-02T16:39:40.547Z,41.95
2023-03-02T16:42:10.312Z,43.39
2023-03-02T16:44:40.567Z,44.16
2023-03-02T16:47:10.328Z,44.59
2023-03-02T16:49:40.481Z,44.55
2023-03-02T16:52:10.255Z,44.19
2023-03-02T16:54:40.038Z,43.58
2023-03-02T16:57:10.711Z,42.68
2023-03-02T16:59:40.720Z,43.84
2023-03-02T17:02:12.962Z,42.46
2023-03-02T17:04:42.870Z,42.31
2023-03-02T17:07:13.077Z,42.97
2023-03-02T17:09:42.852Z,42.07
2023-03-02T17:12:12.669Z,41.59
2023-03-02T17:14:43.015Z,41.94
2023-03-02T17:17:12.797Z,41.96
2023-03-02T17:19:42.992Z,42.09
2023-03-02T17:22:13.002Z,41.69
2023-03-02T17:24:43.183Z,41.81
2023-03-02T17:27:24.230Z,41.39
2023-03-02T17:29:56.091Z,41.30
2023-03-02T17:32:26.026Z,40.65
2023-03-02T17:34:55.822Z,40.57
2023-03-02T17:37:27.194Z,40.68
2023-03-02T17:39:57.177Z,40.17
2023-03-02T17:42:28.066Z,39.58
2023-03-02T17:44:58.507Z,39.80
2023-03-02T17:47:28.356Z,39.73
2023-03-02T17:49:59.470Z,39.55
2023-03-02T17:52:30.708Z,39.53
2023-03-02T17:55:00.861Z,38.65
2023-03-02T17:57:30.412Z,37.57
2023-03-02T18:00:00.242Z,36.81
2023-03-02T18:02:29.888Z,36.60
2023-03-02T18:05:00.412Z,36.39
2023-03-02T18:07:30.150Z,36.30
2023-03-02T18:09:59.793Z,36.10
2023-03-02T18:12:30.026Z,36.22
2023-03-02T18:15:00.798Z,36.32
2023-03-02T18:17:31.379Z,36.99
2023-03-02T18:20:01.204Z,36.93
2023-03-02T18:22:31.780Z,36.56
2023-03-02T18:25:02.011Z,36.58
2023-03-02T18:27:31.726Z,36.17
2023-03-02T18:30:01.719Z,35.21
2023-03-02T18:32:32.060Z,34.89
2023-03-02T18:35:01.958Z,34.82
2023-03-02T18:37:34.967Z,34.98
2023-03-02T18:40:05.812Z,34.65
2023-03-02T18:42:36.378Z,34.73
2023-03-02T18:45:07.701Z,34.54
2023-03-02T18:47:38.223Z,34.36
2023-03-02T18:50:08.414Z,34.36
2023-03-02T18:52:38.575Z,34.29
2023-03-02T18:55:10.045Z,34.14
2023-03-02T18:57:41.084Z,34.05
2023-03-02T19:00:17.486Z,33.95
2023-03-02T19:02:47.668Z,33.68
2023-03-02T19:05:20.588Z,33.51
2023-03-02T19:07:51.185Z,33.47
2023-03-02T19:10:21.868Z,33.54
2023-03-02T19:12:52.074Z,33.48
2023-03-02T19:15:22.017Z,33.43
2023-03-02T19:17:53.016Z,33.45
2023-03-02T19:20:22.959Z,33.34
2023-03-02T19:22:53.170Z,33.27
2023-03-02T19:25:22.810Z,33.17
2023-03-02T19:27:53.021Z,33.12
2023-03-02T19:30:26.407Z,33.09
2023-03-02T19:32:56.714Z,33.09
2023-03-02T19:35:29.557Z,33.04
2023-03-02T19:37:59.382Z,33.04
2023-03-02T19:40:31.326Z,32.91
2023-03-02T19:43:02.071Z,32.82
2023-03-02T19:45:33.929Z,32.62
2023-03-02T19:48:05.013Z,32.69
2023-03-02T19:50:34.819Z,32.76
2023-03-02T19:53:05.111Z,32.77
2023-03-02T19:55:36.957Z,32.69
2023-03-02T19:58:09.076Z,32.67
2023-03-02T20:00:39.962Z,32.53
2023-03-02T20:03:10.274Z,32.51
2023-03-02T20:05:40.572Z,32.60
2023-03-02T20:08:10.972Z,32.54
2023-03-02T20:10:47.883Z,32.54
2023-03-02T20:13:18.923Z,32.42
2023-03-02T20:15:49.325Z,32.51
2023-03-02T20:18:21.540Z,32.32
2023-03-02T20:20:51.302Z,31.50
2023-03-02T20:23:20.939Z,30.35
2023-03-02T20:25:51.256Z,29.30
2023-03-02T20:28:26.677Z,28.45
2023-03-02T20:30:59.786Z,27.78
2023-03-02T20:33:36.637Z,27.18
2023-03-02T20:36:11.710Z,26.57
2023-03-02T20:38:47.969Z,25.98
2023-03-02T20:41:20.442Z,25.76
2023-03-02T20:43:54.839Z,25.73
2023-03-02T20:46:30.205Z,25.58
2023-03-02T20:49:00.527Z,25.49
2023-03-02T20:51:31.524Z,25.55
2023-03-02T20:54:01.490Z,25.72
2023-03-02T20:56:31.896Z,25.74
2023-03-02T20:59:01.793Z,25.66
2023-03-02T21:01:31.519Z,25.70
2023-03-02T21:04:01.735Z,25.60
2023-03-02T21:06:35.564Z,25.33
2023-03-02T21:09:09.800Z,25.08
2023-03-02T21:11:43.354Z,24.97
2023-03-02T21:14:16.915Z,24.84
2023-03-02T21:16:49.694Z,24.88
2023-03-02T21:19:22.396Z,24.81
2023-03-02T21:21:53.510Z,24.85
2023-03-02T21:24:29.533Z,24.82
2023-03-02T21:27:02.645Z,24.76
2023-03-02T21:29:34.473Z,24.56
2023-03-02T21:32:10.374Z,24.41
2023-03-02T21:34:42.289Z,24.28
2023-03-02T21:37:14.712Z,24.30
2023-03-02T21:39:46.621Z,24.28
2023-03-02T21:42:17.905Z,24.31
2023-03-02T21:44:49.741Z,24.26
2023-03-02T21:47:20.646Z,24.25
2023-03-02T21:49:52.691Z,23.98
2023-03-02T21:52:24.137Z,23.86
2023-03-02T21:54:56.928Z,23.77
2023-03-02T21:57:28.232Z,23.73
2023-03-02T22:00:00.169Z,23.79
2023-03-02T22:02:35.457Z,23.97
2023-03-02T22:05:07.533Z,24.02
2023-03-02T22:07:38.750Z,24.09
2023-03-02T22:10:21.209Z,24.11
2023-03-02T22:12:58.602Z,24.06
2023-03-02T22:15:30.399Z,24.15
2023-03-02T22:18:01.771Z,24.24
2023-03-02T22:20:34.559Z,24.36
2023-03-02T22:23:15.828Z,24.47
2023-03-02T22:25:47.540Z,24.55
2023-03-02T22:28:31.688Z,24.39
2023-03-02T22:31:22.244Z,24.34
2023-03-02T22:33:53.442Z,24.45
2023-03-02T22:36:27.149Z,24.64
2023-03-02T22:39:03.920Z,24.70
2023-03-02T22:41:38.289Z,24.72
2023-03-02T22:44:15.278Z,24.53
2023-03-02T22:46:47.469Z,24.51
2023-03-02T22:49:20.585Z,24.33
2023-03-02T22:51:52.873Z,24.34
2023-03-02T22:54:39.408Z,24.34
2023-03-02T22:57:40.498Z,24.35
2023-03-02T23:00:23.080Z,24.43
2023-03-02T23:02:56.748Z,24.35
2023-03-02T23:05:31.539Z,24.16
2023-03-02T23:08:24.766Z,23.93
2023-03-02T23:10:58.935Z,23.92
2023-03-02T23:13:43.198Z,24.13
2023-03-02T23:16:26.521Z,24.15
2023-03-02T23:19:00.544Z,24.13
2023-03-02T23:21:47.976Z,24.14
2023-03-02T23:24:20.616Z,24.11
2023-03-02T23:26:52.182Z,24.10
2023-03-02T23:29:24.285Z,23.82
2023-03-02T23:31:55.967Z,23.98
2023-03-02T23:34:27.717Z,23.99
2023-03-02T23:37:00.497Z,23.92
2023-03-02T23:39:32.415Z,23.71
2023-03-02T23:42:03.848Z,23.64
2023-03-02T23:44:35.890Z,23.58
2023-03-02T23:47:07.650Z,23.50
2023-03-02T23:49:39.603Z,23.47
2023-03-02T23:52:10.669Z,23.44
2023-03-02T23:54:44.373Z,23.39
2023-03-02T23:57:16.062Z,23.34
2023-03-02T23:59:47.971Z,23.44
